createdAt,value
2018-11-26T00:00:35.996Z,4.20
2018-11-26T00:03:08.646Z,4.30
2018-11-26T00:05:39.033Z,4.30
2018-11-26T00:08:09.150Z,4.20
2018-11-26T00:11:40.639Z,4.30
2018-11-26T00:14:09.149Z,4.30
2018-11-26T00:16:37.602Z,4.30
2018-11-26T00:19:06.530Z,4.30
2018-11-26T00:21:35.052Z,4.30
2018-11-26T00:24:03.590Z,4.30
2018-11-26T00:26:32.050Z,4.30
2018-11-26T00:29:00.545Z,4.30
2018-11-26T00:31:29.035Z,4.20
2018-11-26T00:33:57.522Z,4.30
2018-11-26T00:36:26.141Z,4.20
2018-11-26T00:38:54.729Z,4.20
2018-11-26T00:41:23.203Z,4.30
2018-11-26T00:43:51.723Z,4.30
2018-11-26T00:46:20.782Z,4.30
2018-11-26T00:48:48.822Z,4.30
2018-11-26T00:51:17.306Z,4.20
2018-11-26T00:53:45.971Z,4.10
2018-11-26T00:56:14.553Z,4.20
2018-11-26T00:58:43.079Z,4.30
2018-11-26T01:01:11.538Z,4.30
2018-11-26T01:03:40.050Z,4.40
2018-11-26T01:06:08.519Z,4.30
2018-11-26T01:08:37.011Z,4.30
2018-11-26T01:11:05.999Z,4.20
2018-11-26T01:13:34.642Z,4.20
2018-11-26T01:16:03.181Z,4.20
2018-11-26T01:18:31.649Z,4.20
2018-11-26T01:21:00.113Z,4.30
2018-11-26T01:23:28.607Z,4.30
2018-11-26T01:25:57.129Z,4.30
2018-11-26T01:28:25.607Z,4.40
2018-11-26T01:30:54.079Z,4.30
2018-11-26T01:33:22.606Z,4.40
2018-11-26T01:35:51.109Z,4.40
2018-11-26T01:38:19.570Z,4.40
2018-11-26T01:40:51.499Z,4.40
2018-11-26T01:43:20.890Z,4.40
2018-11-26T01:45:49.423Z,4.40
2018-11-26T01:48:17.948Z,4.30
2018-11-26T01:50:46.405Z,4.40
2018-11-26T01:53:14.872Z,4.30
2018-11-26T01:55:43.376Z,4.30
2018-11-26T01:58:11.904Z,4.30
2018-11-26T02:00:40.355Z,4.40
2018-11-26T02:03:08.806Z,4.40
2018-11-26T02:05:37.286Z,4.50
2018-11-26T02:08:06.786Z,4.40
2018-11-26T02:10:35.298Z,4.40
2018-11-26T02:13:04.095Z,4.40
2018-11-26T02:15:37.774Z,4.50
2018-11-26T02:18:06.751Z,4.50
2018-11-26T02:20:36.249Z,4.50
2018-11-26T02:23:04.825Z,4.50
2018-11-26T02:25:33.422Z,4.40
2018-11-26T02:28:01.911Z,4.50
2018-11-26T02:30:30.996Z,4.40
2018-11-26T02:32:59.557Z,4.40
2018-11-26T02:35:28.068Z,4.50
2018-11-26T02:37:56.540Z,4.50
2018-11-26T02:40:27.242Z,4.50
2018-11-26T02:42:55.803Z,4.50
2018-11-26T02:45:24.413Z,4.50
2018-11-26T02:47:52.951Z,4.60
2018-11-26T02:50:21.454Z,4.60
2018-11-26T02:52:49.911Z,4.60
2018-11-26T02:55:18.406Z,4.60
2018-11-26T02:57:46.918Z,4.70
2018-11-26T03:00:15.458Z,4.70
2018-11-26T03:02:43.946Z,4.70
2018-11-26T03:05:13.353Z,4.70
2018-11-26T03:07:41.900Z,4.70
2018-11-26T03:10:10.887Z,4.80
2018-11-26T03:12:39.714Z,4.80
2018-11-26T03:15:11.206Z,4.70
2018-11-26T03:17:40.007Z,4.70
2018-11-26T03:20:09.728Z,4.70
2018-11-26T03:22:38.320Z,4.80
2018-11-26T03:25:08.395Z,4.80
2018-11-26T03:27:36.922Z,4.90
2018-11-26T03:30:11.999Z,4.80
2018-11-26T03:32:40.590Z,4.80
2018-11-26T03:35:09.955Z,4.80
2018-11-26T03:37:38.634Z,4.80
2018-11-26T03:40:11.234Z,4.80
2018-11-26T03:42:39.856Z,4.80
2018-11-26T03:45:11.150Z,4.90
2018-11-26T03:47:39.697Z,4.80
2018-11-26T03:50:08.675Z,4.80
2018-11-26T03:52:37.218Z,4.80
2018-11-26T03:55:07.246Z,4.70
2018-11-26T03:57:35.725Z,4.70
2018-11-26T04:00:04.468Z,4.70
2018-11-26T04:02:32.948Z,4.60
2018-11-26T04:05:01.492Z,4.60
2018-11-26T04:07:30.002Z,4.60
2018-11-26T04:09:58.497Z,4.60
2018-11-26T04:12:27.010Z,4.60
2018-11-26T04:14:55.541Z,4.60
2018-11-26T04:17:24.084Z,4.60
2018-11-26T04:19:52.536Z,4.70
2018-11-26T04:22:21.157Z,4.80
2018-11-26T04:24:49.727Z,4.70
2018-11-26T04:27:18.303Z,4.80
2018-11-26T04:29:46.772Z,4.80
2018-11-26T04:32:15.267Z,4.80
2018-11-26T04:34:43.946Z,4.80
2018-11-26T04:37:12.415Z,4.90
2018-11-26T04:39:40.898Z,4.90
2018-11-26T04:42:09.396Z,4.80
2018-11-26T04:44:37.908Z,4.80
2018-11-26T04:47:06.492Z,4.90
2018-11-26T04:49:34.975Z,4.90
2018-11-26T04:52:03.503Z,4.90
2018-11-26T04:54:31.997Z,4.90
2018-11-26T04:57:00.488Z,4.80
2018-11-26T04:59:29.044Z,4.90
2018-11-26T05:01:57.757Z,4.90
2018-11-26T05:04:26.276Z,4.80
2018-11-26T05:06:54.753Z,4.80
2018-11-26T05:09:23.263Z,4.80
2018-11-26T05:11:51.717Z,4.80
2018-11-26T05:14:20.268Z,4.80
2018-11-26T05:16:48.850Z,4.80
2018-11-26T05:19:17.386Z,4.90
2018-11-26T05:21:45.874Z,4.80
2018-11-26T05:24:14.399Z,4.80
2018-11-26T05:26:42.894Z,4.70
2018-11-26T05:29:11.396Z,4.70
2018-11-26T05:31:39.926Z,4.70
2018-11-26T05:34:08.427Z,4.80
2018-11-26T05:36:37.015Z,4.70
2018-11-26T05:39:08.349Z,4.80
2018-11-26T05:41:37.104Z,4.80
2018-11-26T05:44:05.742Z,4.90
2018-11-26T05:46:34.263Z,4.90
2018-11-26T05:49:02.761Z,4.90
2018-11-26T05:51:31.218Z,5.00
2018-11-26T05:53:59.754Z,4.90
2018-11-26T05:56:28.241Z,4.90
2018-11-26T05:58:56.759Z,4.90
2018-11-26T06:01:25.263Z,4.90
2018-11-26T06:03:53.757Z,4.90
2018-11-26T06:06:22.800Z,4.90
2018-11-26T06:08:51.365Z,5.00
2018-11-26T06:11:19.905Z,5.00
2018-11-26T06:13:48.404Z,4.90
2018-11-26T06:16:16.947Z,4.90
2018-11-26T06:18:45.506Z,4.90
2018-11-26T06:21:15.063Z,5.00
2018-11-26T06:23:43.523Z,5.00
2018-11-26T06:26:12.047Z,4.90
2018-11-26T06:28:40.582Z,5.00
2018-11-26T06:31:10.331Z,5.00
2018-11-26T06:33:39.035Z,5.00
2018-11-26T06:36:07.559Z,5.00
2018-11-26T06:38:36.107Z,4.90
2018-11-26T06:41:04.734Z,4.90
2018-11-26T06:43:33.385Z,4.90
2018-11-26T06:46:02.676Z,4.90
2018-11-26T06:48:31.135Z,5.00
2018-11-26T06:50:59.610Z,5.00
2018-11-26T06:53:28.189Z,5.00
2018-11-26T06:55:56.856Z,5.00
2018-11-26T06:58:25.491Z,5.00
2018-11-26T07:00:54.142Z,5.00
2018-11-26T07:03:22.705Z,4.90
2018-11-26T07:05:51.218Z,5.00
2018-11-26T07:08:19.768Z,5.00
2018-11-26T07:10:48.247Z,4.90
2018-11-26T07:13:16.784Z,5.00
2018-11-26T07:15:45.760Z,5.00
2018-11-26T07:18:14.295Z,5.00
2018-11-26T07:20:42.765Z,5.00
2018-11-26T07:23:17.769Z,5.00
2018-11-26T07:25:46.265Z,4.90
2018-11-26T07:28:15.133Z,5.00
2018-11-26T07:30:43.605Z,5.10
2018-11-26T07:33:12.117Z,5.10
2018-11-26T07:35:40.601Z,5.10
2018-11-26T07:38:09.053Z,5.10
2018-11-26T07:40:37.550Z,5.10
2018-11-26T07:43:09.393Z,5.00
2018-11-26T07:45:38.114Z,5.00
2018-11-26T07:48:07.923Z,5.10
2018-11-26T07:50:36.927Z,5.10
2018-11-26T07:53:07.894Z,5.10
2018-11-26T07:55:36.739Z,5.10
2018-11-26T07:58:05.288Z,5.10
2018-11-26T08:00:33.759Z,5.00
2018-11-26T08:03:02.297Z,5.00
2018-11-26T08:05:30.814Z,5.10
2018-11-26T08:07:59.289Z,5.10
2018-11-26T08:10:28.184Z,5.00
2018-11-26T08:12:56.945Z,5.10
2018-11-26T08:15:26.639Z,5.10
2018-11-26T08:17:55.219Z,5.20
2018-11-26T08:20:23.704Z,5.20
2018-11-26T08:22:52.156Z,5.20
2018-11-26T08:25:21.707Z,5.10
2018-11-26T08:27:50.686Z,5.10
2018-11-26T08:30:22.238Z,5.10
2018-11-26T08:32:52.712Z,5.10
2018-11-26T08:35:21.252Z,5.20
2018-11-26T08:38:54.590Z,5.20
2018-11-26T08:41:27.247Z,5.10
2018-11-26T08:43:57.607Z,5.20
2018-11-26T08:46:36.862Z,5.20
2018-11-26T08:49:12.290Z,5.10
2018-11-26T08:51:40.809Z,5.20
2018-11-26T08:54:09.324Z,5.20
2018-11-26T08:56:37.778Z,5.20
2018-11-26T08:59:06.291Z,5.20
2018-11-26T09:01:39.098Z,5.20
2018-11-26T09:04:11.054Z,5.20
2018-11-26T09:06:39.507Z,5.30
2018-11-26T09:09:09.932Z,5.20
2018-11-26T09:11:38.457Z,5.20
2018-11-26T09:14:07.336Z,5.20
2018-11-26T09:16:35.933Z,5.20
2018-11-26T09:19:04.903Z,5.30
2018-11-26T09:21:33.355Z,5.20
2018-11-26T09:24:01.941Z,5.20
2018-11-26T09:26:30.346Z,5.30
2018-11-26T09:28:58.778Z,5.30
2018-11-26T09:31:27.258Z,5.30
2018-11-26T09:33:55.710Z,5.30
2018-11-26T09:36:24.194Z,5.20
2018-11-26T09:38:52.816Z,5.20
2018-11-26T09:41:21.383Z,5.30
2018-11-26T09:43:49.838Z,5.40
2018-11-26T09:46:18.290Z,5.50
2018-11-26T09:48:46.754Z,5.50
2018-11-26T09:51:15.253Z,5.60
2018-11-26T09:53:43.724Z,5.60
2018-11-26T09:56:12.268Z,5.50
2018-11-26T09:58:40.699Z,5.60
2018-11-26T10:01:15.905Z,5.60
2018-11-26T10:03:44.337Z,5.60
2018-11-26T10:06:12.839Z,5.60
2018-11-26T10:08:41.300Z,5.60
2018-11-26T10:11:10.130Z,5.60
2018-11-26T10:13:38.623Z,5.70
2018-11-26T10:16:07.877Z,5.70
2018-11-26T10:18:36.327Z,5.70
2018-11-26T10:21:04.800Z,5.70
2018-11-26T10:23:33.265Z,5.70
2018-11-26T10:26:01.771Z,5.60
2018-11-26T10:28:30.227Z,5.70
2018-11-26T10:30:58.742Z,5.80
2018-11-26T10:33:27.231Z,5.80
2018-11-26T10:35:55.740Z,5.90
2018-11-26T10:38:24.197Z,5.80
2018-11-26T10:40:52.663Z,5.90
2018-11-26T10:43:21.187Z,5.90
2018-11-26T10:45:49.716Z,5.80
2018-11-26T10:48:18.229Z,5.90
2018-11-26T10:50:46.682Z,5.80
2018-11-26T10:53:15.374Z,5.90
2018-11-26T10:55:43.889Z,5.90
2018-11-26T10:58:12.379Z,6.00
2018-11-26T11:00:46.014Z,5.90
2018-11-26T11:03:14.529Z,5.90
2018-11-26T11:05:43.034Z,5.90
2018-11-26T11:08:11.562Z,6.00
2018-11-26T11:10:40.628Z,6.10
2018-11-26T11:13:09.111Z,6.00
2018-11-26T11:15:37.872Z,6.00
2018-11-26T11:18:07.591Z,6.00
2018-11-26T11:20:36.227Z,6.10
2018-11-26T11:23:04.805Z,6.00
2018-11-26T11:25:33.363Z,6.00
2018-11-26T11:28:01.849Z,6.00
2018-11-26T11:30:30.750Z,6.00
2018-11-26T11:32:59.464Z,6.00
2018-11-26T11:35:28.038Z,6.00
2018-11-26T11:37:56.616Z,6.00
2018-11-26T11:40:28.616Z,6.10
2018-11-26T11:42:57.798Z,6.00
2018-11-26T11:45:27.306Z,5.90
2018-11-26T11:47:55.840Z,6.00
2018-11-26T11:50:24.340Z,6.00
2018-11-26T11:52:52.825Z,6.10
2018-11-26T11:55:23.623Z,6.10
2018-11-26T11:57:52.441Z,6.20
2018-11-26T12:00:34.686Z,6.10
2018-11-26T12:03:05.544Z,6.10
2018-11-26T12:05:34.019Z,6.00
2018-11-26T12:08:02.545Z,6.00
2018-11-26T12:10:30.991Z,6.00
2018-11-26T12:12:59.629Z,6.10
2018-11-26T12:15:28.144Z,6.10
2018-11-26T12:17:56.643Z,6.20
2018-11-26T12:20:25.191Z,6.10
2018-11-26T12:22:53.636Z,6.10
2018-11-26T12:25:22.323Z,6.00
2018-11-26T12:27:50.834Z,6.10
2018-11-26T12:30:24.633Z,6.10
2018-11-26T12:32:53.156Z,6.10
2018-11-26T12:35:21.741Z,6.10
2018-11-26T12:37:50.395Z,6.00
2018-11-26T12:40:22.039Z,6.00
2018-11-26T12:42:52.515Z,6.00
2018-11-26T12:45:23.204Z,6.10
2018-11-26T12:47:51.711Z,6.00
2018-11-26T12:50:20.255Z,6.20
2018-11-26T12:52:48.778Z,6.10
2018-11-26T12:55:18.291Z,6.10
2018-11-26T12:57:47.745Z,6.10
2018-11-26T13:00:21.425Z,6.00
2018-11-26T13:02:53.368Z,5.90
2018-11-26T13:05:21.948Z,6.00
2018-11-26T13:07:50.490Z,6.10
2018-11-26T13:10:20.572Z,6.00
2018-11-26T13:12:49.742Z,5.90
2018-11-26T13:15:22.224Z,5.90
2018-11-26T13:17:50.825Z,6.00
2018-11-26T13:20:21.968Z,6.00
2018-11-26T13:22:50.983Z,6.10
2018-11-26T13:25:21.723Z,5.90
2018-11-26T13:27:52.043Z,6.00
2018-11-26T13:30:30.254Z,6.10
2018-11-26T13:32:59.971Z,6.10
2018-11-26T13:35:28.470Z,6.20
2018-11-26T13:37:58.098Z,6.10
2018-11-26T13:40:26.475Z,6.10
2018-11-26T13:42:54.979Z,6.20
2018-11-26T13:45:30.289Z,6.20
2018-11-26T13:47:58.854Z,6.20
2018-11-26T13:50:28.963Z,6.10
2018-11-26T13:52:57.592Z,6.20
2018-11-26T13:55:26.090Z,6.20
2018-11-26T13:57:54.576Z,6.10
2018-11-26T14:00:23.140Z,6.20
2018-11-26T14:02:51.619Z,6.20
2018-11-26T14:05:21.307Z,6.20
2018-11-26T14:07:54.625Z,6.20
2018-11-26T14:10:25.451Z,6.30
2018-11-26T14:13:07.867Z,6.30
2018-11-26T14:15:36.434Z,6.20
2018-11-26T14:18:06.267Z,6.20
2018-11-26T14:20:34.991Z,6.30
2018-11-26T14:25:36.566Z,6.30
2018-11-26T14:30:46.610Z,6.40
2018-11-26T14:33:15.110Z,6.30
2018-11-26T14:35:43.573Z,6.40
2018-11-26T14:38:12.070Z,6.40
2018-11-26T14:40:44.231Z,6.40
2018-11-26T14:43:12.968Z,6.40
2018-11-26T14:45:41.457Z,6.40
2018-11-26T14:48:09.962Z,6.50
2018-11-26T14:50:38.547Z,6.50
2018-11-26T14:53:13.511Z,6.50
2018-11-26T14:55:42.007Z,6.40
2018-11-26T14:58:10.949Z,6.40
2018-11-26T15:00:39.504Z,6.30
2018-11-26T15:03:09.258Z,6.20
2018-11-26T15:05:39.503Z,6.20
2018-11-26T15:08:07.983Z,6.30
2018-11-26T15:10:36.499Z,6.20
2018-11-26T15:13:05.993Z,6.20
2018-11-26T15:15:34.451Z,6.20
2018-11-26T15:18:04.712Z,6.10
2018-11-26T15:20:33.356Z,6.00
2018-11-26T15:23:03.023Z,6.00
2018-11-26T15:25:33.033Z,6.00
2018-11-26T15:28:06.331Z,6.10
2018-11-26T15:30:35.759Z,6.10
2018-11-26T15:33:04.598Z,6.00
2018-11-26T15:35:36.972Z,6.00
2018-11-26T15:38:05.714Z,6.00
2018-11-26T15:40:40.736Z,6.00
2018-11-26T15:43:09.256Z,6.00
2018-11-26T15:45:38.130Z,6.00
2018-11-26T15:48:11.734Z,6.00
2018-11-26T15:50:51.193Z,5.90
2018-11-26T15:53:20.254Z,5.90
2018-11-26T15:55:48.949Z,5.90
2018-11-26T15:58:17.440Z,5.90
2018-11-26T16:00:46.227Z,5.90
2018-11-26T16:03:14.896Z,5.90
2018-11-26T16:05:44.635Z,5.90
2018-11-26T16:08:23.300Z,5.90
2018-11-26T16:10:51.968Z,5.90
2018-11-26T16:13:20.475Z,5.90
2018-11-26T16:15:49.101Z,5.90
2018-11-26T16:18:19.248Z,5.90
2018-11-26T16:20:48.146Z,6.00
2018-11-26T16:23:16.676Z,6.00
2018-11-26T16:25:47.525Z,6.00
2018-11-26T16:28:23.646Z,6.00
2018-11-26T16:30:52.535Z,6.00
2018-11-26T16:33:21.158Z,6.00
2018-11-26T16:35:49.693Z,6.00
2018-11-26T16:38:18.558Z,6.10
2018-11-26T16:40:47.269Z,6.00
2018-11-26T16:43:15.804Z,6.00
2018-11-26T16:45:44.400Z,5.90
2018-11-26T16:48:13.063Z,5.90
2018-11-26T16:50:42.877Z,5.90
2018-11-26T16:53:11.397Z,5.80
2018-11-26T16:55:39.995Z,5.70
2018-11-26T16:58:08.505Z,5.80
2018-11-26T17:00:37.659Z,5.80
2018-11-26T17:03:06.513Z,5.80
2018-11-26T17:05:36.368Z,5.80
2018-11-26T17:08:05.758Z,5.80
2018-11-26T17:10:34.224Z,5.80
2018-11-26T17:13:02.748Z,5.90
2018-11-26T17:15:31.183Z,5.90
2018-11-26T17:18:00.057Z,5.90
2018-11-26T17:20:29.663Z,6.00
2018-11-26T17:22:58.945Z,6.00
2018-11-26T17:25:29.582Z,5.90
2018-11-26T17:27:58.144Z,5.90
2018-11-26T17:30:27.680Z,5.90
2018-11-26T17:32:59.301Z,5.90
2018-11-26T17:35:28.328Z,6.00
2018-11-26T17:37:56.903Z,5.90
2018-11-26T17:40:25.986Z,5.90
2018-11-26T17:42:56.355Z,5.90
2018-11-26T17:45:25.605Z,5.90
2018-11-26T17:47:59.296Z,5.90
2018-11-26T17:50:35.384Z,6.00
2018-11-26T17:53:04.224Z,6.00
2018-11-26T17:55:32.740Z,6.00
2018-11-26T17:58:01.334Z,6.00
2018-11-26T18:00:32.209Z,6.00
2018-11-26T18:03:00.807Z,6.00
2018-11-26T18:05:30.463Z,6.00
2018-11-26T18:08:04.462Z,6.00
2018-11-26T18:10:32.931Z,5.90
2018-11-26T18:13:01.404Z,5.90
2018-11-26T18:15:29.959Z,5.80
2018-11-26T18:17:58.456Z,5.90
2018-11-26T18:20:33.698Z,5.90
2018-11-26T18:23:02.159Z,5.90
2018-11-26T18:25:30.638Z,5.90
2018-11-26T18:28:01.179Z,5.90
2018-11-26T18:31:01.953Z,5.90
2018-11-26T18:33:30.506Z,5.90
2018-11-26T18:35:59.027Z,5.90
2018-11-26T18:38:27.472Z,5.90
2018-11-26T18:40:56.968Z,5.90
2018-11-26T18:43:25.415Z,6.00
2018-11-26T18:45:53.925Z,6.00
2018-11-26T18:48:22.514Z,6.00
2018-11-26T18:50:50.893Z,5.90
2018-11-26T18:53:19.499Z,5.80
2018-11-26T18:55:47.989Z,5.80
2018-11-26T18:58:16.508Z,5.80
2018-11-26T19:00:47.774Z,5.80
2018-11-26T19:03:18.883Z,5.70
2018-11-26T19:05:48.471Z,5.70
2018-11-26T19:08:17.082Z,5.70
2018-11-26T19:10:46.155Z,5.70
2018-11-26T19:13:17.642Z,5.60
2018-11-26T19:15:47.780Z,5.60
2018-11-26T19:18:19.912Z,5.60
2018-11-26T19:20:48.414Z,5.60
2018-11-26T19:23:16.968Z,5.50
2018-11-26T19:25:46.244Z,5.50
2018-11-26T19:28:20.218Z,5.40
2018-11-26T19:30:43.428Z,5.50
2018-11-26T19:33:12.370Z,5.40
2018-11-26T19:35:41.077Z,5.40
2018-11-26T19:38:09.653Z,5.50
2018-11-26T19:40:39.547Z,5.40
2018-11-26T19:43:08.560Z,5.40
2018-11-26T19:45:37.804Z,5.30
2018-11-26T19:48:08.473Z,5.40
2018-11-26T19:50:39.861Z,5.30
2018-11-26T19:53:12.295Z,5.30
2018-11-26T19:55:42.176Z,5.30
2018-11-26T19:58:10.834Z,5.30
2018-11-26T20:00:39.648Z,5.30
2018-11-26T20:03:19.344Z,5.30
2018-11-26T20:05:53.212Z,5.30
2018-11-26T20:08:21.692Z,5.20
2018-11-26T20:10:50.323Z,5.20
2018-11-26T20:13:18.805Z,5.10
2018-11-26T20:15:47.290Z,5.00
2018-11-26T20:18:15.826Z,5.00
2018-11-26T20:20:44.371Z,5.00
2018-11-26T20:23:12.903Z,5.00
2018-11-26T20:25:42.279Z,5.10
2018-11-26T20:28:10.790Z,5.10
2018-11-26T20:30:39.376Z,5.10
2018-11-26T20:33:08.316Z,5.10
2018-11-26T20:35:36.914Z,5.10
2018-11-26T20:38:06.040Z,5.10
2018-11-26T20:40:34.635Z,5.00
2018-11-26T20:43:03.152Z,5.00
2018-11-26T20:45:31.734Z,4.90
2018-11-26T20:48:00.196Z,5.00
2018-11-26T20:50:29.485Z,5.00
2018-11-26T20:52:57.968Z,5.10
2018-11-26T20:55:26.822Z,5.00
2018-11-26T20:57:56.377Z,4.90
2018-11-26T21:00:26.812Z,4.80
2018-11-26T21:03:01.451Z,4.80
2018-11-26T21:05:30.060Z,4.90
2018-11-26T21:07:58.561Z,4.80
2018-11-26T21:10:27.144Z,4.90
2018-11-26T21:12:55.667Z,4.90
2018-11-26T21:15:24.185Z,4.80
2018-11-26T21:17:53.524Z,4.80
2018-11-26T21:20:24.743Z,4.80
2018-11-26T21:22:53.528Z,4.70
2018-11-26T21:25:22.145Z,4.80
2018-11-26T21:27:50.609Z,4.70
2018-11-26T21:30:21.082Z,4.60
2018-11-26T21:32:49.639Z,4.60
2018-11-26T21:35:19.288Z,4.60
2018-11-26T21:37:49.326Z,4.70
2018-11-26T21:40:20.538Z,4.80
2018-11-26T21:42:49.430Z,4.80
2018-11-26T21:45:19.579Z,4.70
2018-11-26T21:47:48.057Z,4.70
2018-11-26T21:50:16.644Z,4.80
2018-11-26T21:52:45.441Z,4.90
2018-11-26T21:55:16.160Z,4.90
2018-11-26T21:57:44.703Z,4.70
2018-11-26T22:00:16.853Z,4.70
2018-11-26T22:02:45.439Z,4.80
2018-11-26T22:05:13.951Z,4.70
2018-11-26T22:07:42.463Z,4.80
2018-11-26T22:10:14.415Z,4.80
2018-11-26T22:12:44.030Z,4.90
2018-11-26T22:15:13.367Z,4.90
2018-11-26T22:17:42.368Z,4.90
2018-11-26T22:20:16.451Z,4.90
2018-11-26T22:22:44.943Z,4.90
2018-11-26T22:25:13.447Z,4.80
2018-11-26T22:27:41.985Z,4.90
2018-11-26T22:30:18.961Z,4.80
2018-11-26T22:32:47.508Z,4.70
2018-11-26T22:35:16.000Z,4.70
2018-11-26T22:37:44.506Z,4.70
2018-11-26T22:40:17.203Z,4.60
2018-11-26T22:42:46.462Z,4.60
2018-11-26T22:45:33.085Z,4.60
2018-11-26T22:48:04.407Z,4.60
2018-11-26T22:50:33.046Z,4.70
2018-11-26T22:53:07.960Z,4.70
2018-11-26T22:55:36.712Z,4.60
2018-11-26T22:58:07.468Z,4.70
2018-11-26T23:00:42.918Z,4.60
2018-11-26T23:03:13.205Z,4.60
2018-11-26T23:05:41.663Z,4.60
2018-11-26T23:08:10.145Z,4.50
2018-11-26T23:10:38.672Z,4.40
2018-11-26T23:13:08.251Z,4.40
2018-11-26T23:15:36.779Z,4.40
2018-11-26T23:18:05.929Z,4.50
2018-11-26T23:20:34.418Z,4.60
2018-11-26T23:23:02.976Z,4.70
2018-11-26T23:25:31.463Z,4.70
2018-11-26T23:27:59.986Z,4.80
2018-11-26T23:30:29.489Z,4.70
2018-11-26T23:32:59.093Z,4.60
2018-11-26T23:35:27.623Z,4.60
2018-11-26T23:37:56.144Z,4.70
2018-11-26T23:40:24.678Z,4.70
2018-11-26T23:42:53.212Z,4.70
2018-11-26T23:45:23.741Z,4.60
2018-11-26T23:47:52.263Z,4.70
2018-11-26T23:50:20.948Z,4.60
2018-11-26T23:52:49.409Z,4.60
2018-11-26T23:55:19.093Z,4.50
2018-11-26T23:57:47.596Z,4.50
